createdAt,value
2018-07-21T00:00:46.301Z,11.10
2018-07-21T00:03:14.837Z,10.83
2018-07-21T00:05:45.370Z,11.87
2018-07-21T00:08:14.100Z,12.33
2018-07-21T00:10:49.476Z,12.90
2018-07-21T00:13:17.918Z,10.80
2018-07-21T00:15:46.550Z,8.83
2018-07-21T00:18:20.476Z,10.77
2018-07-21T00:20:52.584Z,10.27
2018-07-21T00:23:21.294Z,11.80
2018-07-21T00:25:50.806Z,8.93
2018-07-21T00:28:19.245Z,14.67
2018-07-21T00:30:48.842Z,12.57
2018-07-21T00:33:34.984Z,12.63
2018-07-21T00:36:07.112Z,13.73
2018-07-21T00:38:48.622Z,10.50
2018-07-21T00:41:34.271Z,10.93
2018-07-21T00:44:14.372Z,13.67
2018-07-21T00:46:44.876Z,11.23
2018-07-21T00:49:23.064Z,10.17
2018-07-21T00:51:53.650Z,11.63
2018-07-21T00:54:24.186Z,11.87
2018-07-21T00:56:56.780Z,10.97
2018-07-21T00:59:35.008Z,13.47
2018-07-21T01:02:05.500Z,8.60
2018-07-21T01:04:37.316Z,12.00
2018-07-21T01:07:08.995Z,13.60
2018-07-21T01:09:41.729Z,15.33
2018-07-21T01:12:10.116Z,11.50
2018-07-21T01:14:53.202Z,12.37
2018-07-21T01:17:39.022Z,14.43
2018-07-21T01:20:12.196Z,9.10
2018-07-21T01:22:40.896Z,9.57
2018-07-21T01:25:19.938Z,9.53
2018-07-21T01:28:00.924Z,9.37
2018-07-21T01:30:43.380Z,9.83
2018-07-21T01:36:20.413Z,9.07
2018-07-21T01:39:03.964Z,11.03
2018-07-21T01:41:50.982Z,8.40
2018-07-21T01:44:36.240Z,9.67
2018-07-21T01:47:06.817Z,10.07
2018-07-21T01:49:47.447Z,12.70
2018-07-21T01:52:15.899Z,12.77
2018-07-21T01:54:50.642Z,12.40
2018-07-21T01:57:25.172Z,11.13
2018-07-21T01:59:54.822Z,13.50
2018-07-21T02:02:39.176Z,11.37
2018-07-21T02:05:09.320Z,12.50
2018-07-21T02:07:41.824Z,11.80
2018-07-21T02:10:10.442Z,11.67
2018-07-21T02:12:38.828Z,12.83
2018-07-21T02:15:08.500Z,14.90
2018-07-21T02:17:37.162Z,16.73
2018-07-21T02:20:06.122Z,11.13
2018-07-21T02:22:40.974Z,14.60
2018-07-21T02:25:12.418Z,18.33
2018-07-21T02:27:46.366Z,14.37
2018-07-21T02:30:24.821Z,19.43
2018-07-21T02:32:57.213Z,16.50
2018-07-21T02:35:31.094Z,15.80
2018-07-21T02:38:18.266Z,16.37
2018-07-21T02:40:52.132Z,15.37
2018-07-21T02:43:22.764Z,14.47
2018-07-21T02:45:51.372Z,16.23
2018-07-21T02:48:20.976Z,13.53
2018-07-21T02:50:54.597Z,12.30
2018-07-21T02:53:24.212Z,15.73
2018-07-21T02:58:46.781Z,16.90
2018-07-21T03:01:21.546Z,14.23
2018-07-21T03:03:58.266Z,19.33
2018-07-21T03:06:41.336Z,16.83
2018-07-21T03:09:26.012Z,15.23
2018-07-21T03:12:16.854Z,15.43
2018-07-21T03:14:47.385Z,14.83
2018-07-21T03:17:16.994Z,15.87
2018-07-21T03:19:45.665Z,15.50
2018-07-21T03:22:23.117Z,17.03
2018-07-21T03:24:51.650Z,15.57
2018-07-21T03:27:20.320Z,14.90
2018-07-21T03:29:49.948Z,15.13
2018-07-21T03:32:34.558Z,12.77
2018-07-21T03:35:14.950Z,13.57
2018-07-21T03:37:44.541Z,16.27
2018-07-21T03:40:13.850Z,14.93
2018-07-21T03:42:50.258Z,18.27
2018-07-21T03:45:26.276Z,16.40
2018-07-21T03:48:02.744Z,14.73
2018-07-21T03:50:31.391Z,16.10
2018-07-21T03:53:03.741Z,13.97
2018-07-21T03:55:44.655Z,15.63
2018-07-21T03:58:16.483Z,18.00
2018-07-21T04:00:50.690Z,19.00
2018-07-21T04:03:19.431Z,15.83
2018-07-21T04:06:01.870Z,18.50
2018-07-21T04:08:42.245Z,25.97
2018-07-21T04:11:16.742Z,15.27
2018-07-21T04:13:50.065Z,19.40
2018-07-21T04:16:37.800Z,15.77
2018-07-21T04:22:13.550Z,17.10
2018-07-21T04:24:55.772Z,18.03
2018-07-21T04:27:24.212Z,15.80
2018-07-21T04:30:03.382Z,14.73
2018-07-21T04:32:37.870Z,17.30
2018-07-21T04:38:05.390Z,17.93
2018-07-21T04:40:37.552Z,17.07
2018-07-21T04:43:07.019Z,19.27
2018-07-21T04:45:35.686Z,16.97
2018-07-21T04:48:04.944Z,19.97
2018-07-21T04:50:33.354Z,16.67
2018-07-21T04:53:05.734Z,18.27
2018-07-21T04:55:44.892Z,18.17
2018-07-21T04:58:31.633Z,24.27
2018-07-21T05:01:05.091Z,21.83
2018-07-21T05:03:45.022Z,19.47
2018-07-21T05:09:09.489Z,17.53
2018-07-21T05:11:38.611Z,18.40
2018-07-21T05:14:16.578Z,19.80
2018-07-21T05:16:47.172Z,18.23
2018-07-21T05:19:16.763Z,17.87
2018-07-21T05:24:49.239Z,15.90
2018-07-21T05:27:19.718Z,15.43
2018-07-21T05:29:48.390Z,20.13
2018-07-21T05:32:18.951Z,20.00
2018-07-21T05:34:57.452Z,17.57
2018-07-21T05:37:26.172Z,16.47
2018-07-21T05:39:54.767Z,15.57
2018-07-21T05:42:23.159Z,16.57
2018-07-21T05:44:52.811Z,12.87
2018-07-21T05:47:21.575Z,14.77
2018-07-21T05:49:50.188Z,15.40
2018-07-21T05:52:21.950Z,12.97
2018-07-21T05:54:54.026Z,13.30
2018-07-21T05:57:23.703Z,16.37
2018-07-21T05:59:53.221Z,18.60
2018-07-21T06:02:23.752Z,13.57
2018-07-21T06:04:57.087Z,12.67
2018-07-21T06:07:25.730Z,13.07
2018-07-21T06:09:54.634Z,13.20
2018-07-21T06:12:37.580Z,16.77
2018-07-21T06:15:16.154Z,14.57
2018-07-21T06:17:44.808Z,16.70
2018-07-21T06:20:13.494Z,14.87
2018-07-21T06:22:42.142Z,12.77
2018-07-21T06:25:22.739Z,15.93
2018-07-21T06:28:02.905Z,14.37
2018-07-21T06:30:39.365Z,11.00
2018-07-21T06:33:07.956Z,10.97
2018-07-21T06:35:50.694Z,11.27
2018-07-21T06:38:42.452Z,13.00
2018-07-21T06:41:16.087Z,10.90
2018-07-21T06:43:46.691Z,8.47
2018-07-21T06:46:22.916Z,11.63
2018-07-21T06:49:03.900Z,13.13
2018-07-21T06:51:36.962Z,20.23
2018-07-21T06:54:16.022Z,11.80
2018-07-21T06:56:44.460Z,13.70
2018-07-21T07:02:17.811Z,8.37
2018-07-21T07:04:51.387Z,11.17
2018-07-21T07:07:34.183Z,10.20
2018-07-21T07:10:02.942Z,13.03
2018-07-21T07:12:31.513Z,9.87
2018-07-21T07:14:59.938Z,11.03
2018-07-21T07:17:28.620Z,10.83
2018-07-21T07:19:59.145Z,13.43
2018-07-21T07:22:33.094Z,12.03
2018-07-21T07:25:16.135Z,11.87
2018-07-21T07:28:00.800Z,10.10
2018-07-21T07:33:26.154Z,10.60
2018-07-21T07:35:57.006Z,10.67
2018-07-21T07:41:19.309Z,11.07
2018-07-21T07:43:49.829Z,12.03
2018-07-21T07:49:23.992Z,7.50
2018-07-21T07:51:56.090Z,12.73
2018-07-21T07:54:27.882Z,8.80
2018-07-21T07:57:02.423Z,8.87
2018-07-21T07:59:41.482Z,10.90
2018-07-21T08:05:07.277Z,9.63
2018-07-21T08:07:37.710Z,10.40
2018-07-21T08:10:15.902Z,10.10
2018-07-21T08:12:45.571Z,11.53
2018-07-21T08:15:14.182Z,8.63
2018-07-21T08:17:43.902Z,8.57
2018-07-21T08:20:16.600Z,8.23
2018-07-21T08:22:46.221Z,7.97
2018-07-21T08:25:16.950Z,8.00
2018-07-21T08:28:01.678Z,11.57
2018-07-21T08:30:40.719Z,7.60
2018-07-21T08:33:14.353Z,8.67
2018-07-21T08:35:51.293Z,8.53
2018-07-21T08:38:19.986Z,7.17
2018-07-21T08:40:55.727Z,7.30
2018-07-21T08:43:24.502Z,9.33
2018-07-21T08:46:05.966Z,7.13
2018-07-21T08:48:39.982Z,9.03
2018-07-21T08:51:11.994Z,8.87
2018-07-21T08:53:59.430Z,8.57
2018-07-21T08:59:33.439Z,9.73
2018-07-21T09:02:02.006Z,8.83
2018-07-21T09:04:35.544Z,7.07
2018-07-21T09:07:05.514Z,7.67
2018-07-21T09:09:51.132Z,8.43
2018-07-21T09:12:20.723Z,9.70
2018-07-21T09:14:53.706Z,9.53
2018-07-21T09:17:29.853Z,8.10
2018-07-21T09:23:02.310Z,7.27
2018-07-21T09:25:32.558Z,9.40
2018-07-21T09:28:16.504Z,11.37
2018-07-21T09:30:45.936Z,9.90
2018-07-21T09:36:09.312Z,10.47
2018-07-21T09:38:44.956Z,9.27
2018-07-21T09:41:13.364Z,8.13
2018-07-21T09:43:41.791Z,9.10
2018-07-21T09:46:10.504Z,9.30
2018-07-21T09:49:03.455Z,8.77
2018-07-21T09:51:33.072Z,7.73
2018-07-21T09:54:17.424Z,8.47
2018-07-21T09:56:57.446Z,14.07
2018-07-21T09:59:29.850Z,12.90
2018-07-21T10:02:10.261Z,10.60
2018-07-21T10:07:31.955Z,14.60
2018-07-21T10:10:02.932Z,9.23
2018-07-21T10:12:41.749Z,8.73
2018-07-21T10:15:17.575Z,8.57
2018-07-21T10:17:52.014Z,11.67
2018-07-21T10:20:24.518Z,9.30
2018-07-21T10:22:54.233Z,10.13
2018-07-21T10:27:33.064Z,9.93
2018-07-21T10:30:06.949Z,10.93
2018-07-21T10:32:36.849Z,12.50
2018-07-21T10:35:13.499Z,9.47
2018-07-21T10:37:44.075Z,11.67
2018-07-21T10:40:16.467Z,8.97
2018-07-21T10:42:55.800Z,8.87
2018-07-21T10:48:18.374Z,9.20
2018-07-21T10:51:02.806Z,10.37
2018-07-21T10:53:34.567Z,10.33
2018-07-21T10:56:10.570Z,11.20
2018-07-21T10:58:49.765Z,10.53
2018-07-21T11:01:19.378Z,9.50
2018-07-21T11:03:48.873Z,9.00
2018-07-21T11:06:20.724Z,9.37
2018-07-21T11:11:53.978Z,11.30
2018-07-21T11:14:22.366Z,13.67
2018-07-21T11:19:58.768Z,11.77
2018-07-21T11:22:32.012Z,6.87
2018-07-21T11:25:03.320Z,7.73
2018-07-21T11:27:32.920Z,13.53
2018-07-21T11:30:02.754Z,9.93
2018-07-21T11:32:33.821Z,7.63
2018-07-21T11:35:04.494Z,8.30
2018-07-21T11:37:35.336Z,12.33
2018-07-21T11:40:09.797Z,7.83
2018-07-21T11:42:39.866Z,8.17
2018-07-21T11:45:17.982Z,10.97
2018-07-21T11:47:59.130Z,9.60
2018-07-21T11:50:29.822Z,8.57
2018-07-21T11:53:03.894Z,9.40
2018-07-21T11:55:32.297Z,8.40
2018-07-21T11:58:01.965Z,6.67
2018-07-21T12:00:33.682Z,7.43
2018-07-21T12:03:10.413Z,11.33
2018-07-21T12:05:40.960Z,10.50
2018-07-21T12:08:10.529Z,11.40
2018-07-21T12:10:40.307Z,7.60
2018-07-21T12:13:10.616Z,9.00
2018-07-21T12:15:44.562Z,7.63
2018-07-21T12:18:14.371Z,9.60
2018-07-21T12:20:51.384Z,8.27
2018-07-21T12:23:23.729Z,9.93
2018-07-21T12:25:53.565Z,9.10
2018-07-21T12:28:28.251Z,8.30
2018-07-21T12:31:14.785Z,12.83
2018-07-21T12:33:55.249Z,8.07
2018-07-21T12:36:40.660Z,7.80
2018-07-21T12:39:23.930Z,7.93
2018-07-21T12:41:57.649Z,9.57
2018-07-21T12:44:31.965Z,12.27
2018-07-21T12:50:11.142Z,9.70
2018-07-21T12:52:51.412Z,8.43
2018-07-21T12:55:19.863Z,9.00
2018-07-21T12:57:48.546Z,9.87
2018-07-21T13:00:22.955Z,9.53
2018-07-21T13:03:11.746Z,9.43
2018-07-21T13:05:47.027Z,12.50
2018-07-21T13:08:16.624Z,12.60
2018-07-21T13:10:45.768Z,10.73
2018-07-21T13:13:16.555Z,9.43
2018-07-21T13:15:45.250Z,9.17
2018-07-21T13:18:15.862Z,10.03
2018-07-21T13:20:46.837Z,10.30
2018-07-21T13:23:18.754Z,9.43
2018-07-21T13:25:48.717Z,11.30
2018-07-21T13:28:17.057Z,8.97
2018-07-21T13:30:57.771Z,7.53
2018-07-21T13:33:30.932Z,8.77
2018-07-21T13:35:59.701Z,8.33
2018-07-21T13:38:28.615Z,9.37
2018-07-21T13:40:58.107Z,8.83
2018-07-21T13:43:26.805Z,11.33
2018-07-21T13:45:56.461Z,7.53
2018-07-21T13:48:26.103Z,7.10
2018-07-21T13:50:59.019Z,10.73
2018-07-21T13:53:33.053Z,10.87
2018-07-21T13:56:02.227Z,11.13
2018-07-21T13:58:36.735Z,7.00
2018-07-21T14:01:10.045Z,8.23
2018-07-21T14:03:41.452Z,9.17
2018-07-21T14:06:15.689Z,7.87
2018-07-21T14:08:46.169Z,9.80
2018-07-21T14:11:16.133Z,11.17
2018-07-21T14:13:45.877Z,10.43
2018-07-21T14:16:18.497Z,9.27
2018-07-21T14:18:47.190Z,16.70
2018-07-21T14:21:17.519Z,12.90
2018-07-21T14:23:51.891Z,10.80
2018-07-21T14:26:24.631Z,8.53
2018-07-21T14:28:53.321Z,9.60
2018-07-21T14:31:24.099Z,8.03
2018-07-21T14:33:59.965Z,12.53
2018-07-21T14:36:29.887Z,10.97
2018-07-21T14:39:00.227Z,10.23
2018-07-21T14:41:40.574Z,9.37
2018-07-21T14:44:10.991Z,8.07
2018-07-21T14:46:42.320Z,9.13
2018-07-21T14:49:16.586Z,14.80
2018-07-21T14:51:49.868Z,8.83
2018-07-21T14:54:19.564Z,9.80
2018-07-21T14:56:52.557Z,9.70
2018-07-21T14:59:21.264Z,8.03
2018-07-21T15:01:55.054Z,12.23
2018-07-21T15:04:24.738Z,10.70
2018-07-21T15:06:57.200Z,7.90
2018-07-21T15:09:32.176Z,11.30
2018-07-21T15:12:01.189Z,8.57
2018-07-21T15:14:38.550Z,10.33
2018-07-21T15:17:12.634Z,10.83
2018-07-21T15:19:47.266Z,9.17
2018-07-21T15:22:19.152Z,10.03
2018-07-21T15:24:48.528Z,12.07
2018-07-21T15:27:24.982Z,9.80
2018-07-21T15:29:54.265Z,8.87
2018-07-21T15:32:23.086Z,9.07
2018-07-21T15:34:52.169Z,11.40
2018-07-21T15:37:21.576Z,10.53
2018-07-21T15:39:55.764Z,9.60
2018-07-21T15:42:25.682Z,10.53
2018-07-21T15:44:55.892Z,11.53
2018-07-21T15:47:26.789Z,9.97
2018-07-21T15:49:57.646Z,11.83
2018-07-21T15:52:29.537Z,10.57
2018-07-21T15:55:01.872Z,12.33
2018-07-21T15:57:40.386Z,9.13
2018-07-21T16:00:11.271Z,11.23
2018-07-21T16:02:42.404Z,9.53
2018-07-21T16:05:16.036Z,7.47
2018-07-21T16:07:48.829Z,13.90
2018-07-21T16:10:21.085Z,12.13
2018-07-21T16:12:50.708Z,9.03
2018-07-21T16:15:20.723Z,9.10
2018-07-21T16:17:50.365Z,10.03
2018-07-21T16:20:28.442Z,10.80
2018-07-21T16:22:57.202Z,13.17
2018-07-21T16:25:32.564Z,8.83
2018-07-21T16:28:01.735Z,11.23
2018-07-21T16:30:34.767Z,10.87
2018-07-21T16:33:12.694Z,10.40
2018-07-21T16:35:54.861Z,11.03
2018-07-21T16:38:24.167Z,8.37
2018-07-21T16:40:59.119Z,12.80
2018-07-21T16:43:28.028Z,9.23
2018-07-21T16:45:57.511Z,8.07
2018-07-21T16:48:26.619Z,10.47
2018-07-21T16:50:54.895Z,7.27
2018-07-21T16:53:24.857Z,8.00
2018-07-21T16:55:57.694Z,7.03
2018-07-21T16:58:26.817Z,13.03
2018-07-21T17:01:00.544Z,13.60
2018-07-21T17:03:39.929Z,12.50
2018-07-21T17:06:10.502Z,9.83
2018-07-21T17:08:39.854Z,11.57
2018-07-21T17:11:08.442Z,14.47
2018-07-21T17:13:37.924Z,10.57
2018-07-21T17:16:06.433Z,10.50
2018-07-21T17:18:43.093Z,10.77
2018-07-21T17:21:16.493Z,8.67
2018-07-21T17:23:45.118Z,7.77
2018-07-21T17:26:15.647Z,10.73
2018-07-21T17:28:47.723Z,7.63
2018-07-21T17:31:20.565Z,8.10
2018-07-21T17:33:49.277Z,9.00
2018-07-21T17:36:24.281Z,8.57
2018-07-21T17:38:53.263Z,11.43
2018-07-21T17:41:22.032Z,8.20
2018-07-21T17:43:52.781Z,11.50
2018-07-21T17:46:25.523Z,7.40
2018-07-21T17:48:56.031Z,8.67
2018-07-21T17:51:25.575Z,8.73
2018-07-21T17:53:58.007Z,10.03
2018-07-21T17:56:29.987Z,8.27
2018-07-21T17:58:59.587Z,6.83
2018-07-21T18:01:30.193Z,8.57
2018-07-21T18:04:05.875Z,8.07
2018-07-21T18:06:49.285Z,7.27
2018-07-21T18:12:13.370Z,6.50
2018-07-21T18:15:06.353Z,8.60
2018-07-21T18:17:36.375Z,7.87
2018-07-21T18:20:05.361Z,10.60
2018-07-21T18:25:29.158Z,5.83
2018-07-21T18:27:57.707Z,6.40
2018-07-21T18:30:30.454Z,9.73
2018-07-21T18:33:00.097Z,9.00
2018-07-21T18:35:29.486Z,6.67
2018-07-21T18:38:03.876Z,7.73
2018-07-21T18:40:46.022Z,12.00
2018-07-21T18:43:15.663Z,12.07
2018-07-21T18:45:45.275Z,7.17
2018-07-21T18:48:14.148Z,10.37
2018-07-21T18:50:42.692Z,6.53
2018-07-21T18:53:16.297Z,6.83
2018-07-21T18:55:44.946Z,6.60
2018-07-21T18:58:13.681Z,7.00
2018-07-21T19:00:49.401Z,7.87
2018-07-21T19:03:26.378Z,9.73
2018-07-21T19:08:59.208Z,8.40
2018-07-21T19:11:28.921Z,13.17
2018-07-21T19:14:05.963Z,8.63
2018-07-21T19:16:42.789Z,8.57
2018-07-21T19:19:13.515Z,8.30
2018-07-21T19:21:49.200Z,6.37
2018-07-21T19:24:17.815Z,7.90
2018-07-21T19:27:01.561Z,8.40
2018-07-21T19:29:36.147Z,7.90
2018-07-21T19:32:11.509Z,9.70
2018-07-21T19:34:41.557Z,6.10
2018-07-21T19:37:47.050Z,7.47
2018-07-21T19:40:18.004Z,7.83
2018-07-21T19:42:48.753Z,7.23
2018-07-21T19:45:18.393Z,6.63
2018-07-21T19:48:04.595Z,7.03
2018-07-21T19:50:34.163Z,6.20
2018-07-21T19:53:21.025Z,6.40
2018-07-21T19:55:55.642Z,9.80
2018-07-21T19:58:25.196Z,8.33
2018-07-21T20:00:56.929Z,8.40
2018-07-21T20:03:48.312Z,7.53
2018-07-21T20:06:36.049Z,7.17
2018-07-21T20:09:13.021Z,9.53
2018-07-21T20:11:41.877Z,5.27
2018-07-21T20:14:10.380Z,7.33
2018-07-21T20:16:40.039Z,5.60
2018-07-21T20:22:03.332Z,5.77
2018-07-21T20:24:39.249Z,11.47
2018-07-21T20:27:11.737Z,10.00
2018-07-21T20:32:33.871Z,6.37
2018-07-21T20:35:14.973Z,9.47
2018-07-21T20:38:06.928Z,8.20
2018-07-21T20:40:45.025Z,5.57
2018-07-21T20:43:14.448Z,7.77
2018-07-21T20:45:48.046Z,6.67
2018-07-21T20:48:22.283Z,8.97
2018-07-21T20:50:51.955Z,9.37
2018-07-21T20:53:28.227Z,6.10
2018-07-21T20:55:56.980Z,9.77
2018-07-21T20:58:25.705Z,13.73
2018-07-21T21:01:03.519Z,14.40
2018-07-21T21:03:37.815Z,12.40
2018-07-21T21:06:16.826Z,9.10
2018-07-21T21:08:49.880Z,7.27
2018-07-21T21:11:18.545Z,7.67
2018-07-21T21:13:47.410Z,8.67
2018-07-21T21:16:22.841Z,8.70
2018-07-21T21:18:55.267Z,11.03
2018-07-21T21:21:28.328Z,11.83
2018-07-21T21:23:59.349Z,9.33
2018-07-21T21:26:28.794Z,8.60
2018-07-21T21:28:57.631Z,11.50
2018-07-21T21:31:30.003Z,11.37
2018-07-21T21:33:58.688Z,7.03
2018-07-21T21:36:32.942Z,9.70
2018-07-21T21:39:35.581Z,9.30
2018-07-21T21:42:04.616Z,7.70
2018-07-21T21:44:37.679Z,8.87
2018-07-21T21:50:28.757Z,8.17
2018-07-21T21:52:59.631Z,8.90
2018-07-21T21:55:29.281Z,8.77
2018-07-21T21:58:01.755Z,8.80
2018-07-21T22:00:46.631Z,9.03
2018-07-21T22:03:24.958Z,11.50
2018-07-21T22:05:53.729Z,9.03
2018-07-21T22:08:25.395Z,9.47
2018-07-21T22:10:55.081Z,9.83
2018-07-21T22:13:23.864Z,9.93
2018-07-21T22:15:56.263Z,8.97
2018-07-21T22:18:26.094Z,12.00
2018-07-21T22:21:01.305Z,11.37
2018-07-21T22:23:35.217Z,9.50
2018-07-21T22:26:06.031Z,9.07
2018-07-21T22:28:41.621Z,9.20
2018-07-21T22:31:22.548Z,10.57
2018-07-21T22:33:52.492Z,10.53
2018-07-21T22:36:21.652Z,10.03
2018-07-21T22:38:50.939Z,9.00
2018-07-21T22:41:23.705Z,10.47
2018-07-21T22:43:58.349Z,10.50
2018-07-21T22:46:49.101Z,10.17
2018-07-21T22:49:19.445Z,10.80
2018-07-21T22:51:52.353Z,12.93
2018-07-21T22:54:21.438Z,9.70
2018-07-21T22:56:50.212Z,11.27
2018-07-21T22:59:18.999Z,12.03
2018-07-21T23:01:48.906Z,9.60
2018-07-21T23:04:23.045Z,11.07
2018-07-21T23:06:55.065Z,10.90
2018-07-21T23:09:30.396Z,12.30
2018-07-21T23:12:02.543Z,10.63
2018-07-21T23:14:39.573Z,10.13
2018-07-21T23:17:30.819Z,10.47
2018-07-21T23:20:17.903Z,11.87
2018-07-21T23:22:48.549Z,12.93
2018-07-21T23:25:34.043Z,13.73
2018-07-21T23:28:23.399Z,11.73
2018-07-21T23:30:52.890Z,9.07
2018-07-21T23:33:34.534Z,15.63
2018-07-21T23:38:57.936Z,13.00
2018-07-21T23:41:30.950Z,12.20
2018-07-21T23:44:02.907Z,14.07
2018-07-21T23:46:43.216Z,11.13
2018-07-21T23:49:13.194Z,12.17
2018-07-21T23:54:36.872Z,16.33
2018-07-21T23:57:17.809Z,10.57
2018-07-21T23:59:48.328Z,14.90
